Terminal Aerodrome Forecast
Issued by NWS Twin Cities, MN

Home | Current Version | Previous Version | Graphics & Text | Print | Product List | Glossary On
Versions: 1 2 3 4 5 6 7 8 9 10 11 12 13 14 15 16 17
401
FTUS43 KMPX 052055 AAA
TAFEAU
TAF AMD
KEAU 052055Z 0521/0618 14010KT P6SM SCT030 OVC080
     FM060800 18008KT 1SM -SN BR OVC008
     FM061300 24010G18KT P6SM OVC015=

USA.gov is the U.S. government's official web portal to all federal, state and local government web resources and services.